sensor_id;sensor_type;location;lat;lon;timestamp;temperature;humidity
31747;DHT22;18319;48.974;8.462;2023-05-10T00:00:58;13.40;99.90
31747;DHT22;18319;48.974;8.462;2023-05-10T00:03:25;13.30;99.90
31747;DHT22;18319;48.974;8.462;2023-05-10T00:05:51;13.40;99.90
31747;DHT22;18319;48.974;8.462;2023-05-10T00:08:18;13.40;99.90
31747;DHT22;18319;48.974;8.462;2023-05-10T00:10:45;13.40;99.90
31747;DHT22;18319;48.974;8.462;2023-05-10T00:13:12;13.40;99.90
31747;DHT22;18319;48.974;8.462;2023-05-10T00:15:40;13.40;99.90
31747;DHT22;18319;48.974;8.462;2023-05-10T00:18:07;13.40;99.90
31747;DHT22;18319;48.974;8.462;2023-05-10T00:20:34;13.40;99.90
31747;DHT22;18319;48.974;8.462;2023-05-10T00:23:01;13.40;99.90
31747;DHT22;18319;48.974;8.462;2023-05-10T00:25:27;13.40;99.90
31747;DHT22;18319;48.974;8.462;2023-05-10T00:27:54;13.40;99.90
31747;DHT22;18319;48.974;8.462;2023-05-10T00:30:22;13.40;99.90
31747;DHT22;18319;48.974;8.462;2023-05-10T00:32:50;13.40;99.90
31747;DHT22;18319;48.974;8.462;2023-05-10T00:35:17;13.40;99.90
31747;DHT22;18319;48.974;8.462;2023-05-10T00:37:44;13.40;99.90
31747;DHT22;18319;48.974;8.462;2023-05-10T00:40:11;13.40;99.90
31747;DHT22;18319;48.974;8.462;2023-05-10T00:42:38;13.40;99.90
31747;DHT22;18319;48.974;8.462;2023-05-10T00:45:06;13.40;99.90
31747;DHT22;18319;48.974;8.462;2023-05-10T00:47:34;13.30;99.90
31747;DHT22;18319;48.974;8.462;2023-05-10T00:50:03;13.30;99.90
31747;DHT22;18319;48.974;8.462;2023-05-10T00:52:30;13.40;99.90
31747;DHT22;18319;48.974;8.462;2023-05-10T00:54:57;13.40;99.90
31747;DHT22;18319;48.974;8.462;2023-05-10T00:57:24;13.30;99.90
31747;DHT22;18319;48.974;8.462;2023-05-10T00:59:51;13.40;99.90
31747;DHT22;18319;48.974;8.462;2023-05-10T01:02:18;13.40;99.90
31747;DHT22;18319;48.974;8.462;2023-05-10T01:04:45;13.40;99.90
31747;DHT22;18319;48.974;8.462;2023-05-10T01:07:14;13.40;99.90
31747;DHT22;18319;48.974;8.462;2023-05-10T01:09:41;13.40;99.90
31747;DHT22;18319;48.974;8.462;2023-05-10T01:12:07;13.40;99.90
31747;DHT22;18319;48.974;8.462;2023-05-10T01:14:35;13.40;99.90
31747;DHT22;18319;48.974;8.462;2023-05-10T01:17:02;13.40;99.90
31747;DHT22;18319;48.974;8.462;2023-05-10T01:19:30;13.40;99.90
31747;DHT22;18319;48.974;8.462;2023-05-10T01:22:06;13.40;99.90
31747;DHT22;18319;48.974;8.462;2023-05-10T01:24:51;13.40;99.90
31747;DHT22;18319;48.974;8.462;2023-05-10T01:30:59;13.30;99.90
31747;DHT22;18319;48.974;8.462;2023-05-10T01:33:35;13.20;99.90
31747;DHT22;18319;48.974;8.462;2023-05-10T01:36:05;13.20;99.90
31747;DHT22;18319;48.974;8.462;2023-05-10T01:38:38;13.20;99.90
31747;DHT22;18319;48.974;8.462;2023-05-10T01:41:13;13.10;99.90
31747;DHT22;18319;48.974;8.462;2023-05-10T01:43:48;13.10;99.90
31747;DHT22;18319;48.974;8.462;2023-05-10T01:46:22;13.00;99.90
31747;DHT22;18319;48.974;8.462;2023-05-10T01:48:55;12.90;99.90
31747;DHT22;18319;48.974;8.462;2023-05-10T01:51:24;12.80;99.90
31747;DHT22;18319;48.974;8.462;2023-05-10T01:53:59;12.80;99.90
31747;DHT22;18319;48.974;8.462;2023-05-10T01:56:29;12.80;99.90
31747;DHT22;18319;48.974;8.462;2023-05-10T01:58:57;12.90;99.90
31747;DHT22;18319;48.974;8.462;2023-05-10T02:01:26;12.90;99.90
31747;DHT22;18319;48.974;8.462;2023-05-10T02:03:55;12.90;99.90
31747;DHT22;18319;48.974;8.462;2023-05-10T02:06:24;12.90;99.90
31747;DHT22;18319;48.974;8.462;2023-05-10T02:08:52;13.00;99.90
31747;DHT22;18319;48.974;8.462;2023-05-10T02:11:20;13.00;99.90
31747;DHT22;18319;48.974;8.462;2023-05-10T02:13:49;13.10;99.90
31747;DHT22;18319;48.974;8.462;2023-05-10T02:16:18;13.10;99.90
31747;DHT22;18319;48.974;8.462;2023-05-10T02:18:48;13.10;99.90
31747;DHT22;18319;48.974;8.462;2023-05-10T02:21:17;13.10;99.90
31747;DHT22;18319;48.974;8.462;2023-05-10T02:23:46;13.10;99.90
31747;DHT22;18319;48.974;8.462;2023-05-10T02:26:14;13.10;99.90
31747;DHT22;18319;48.974;8.462;2023-05-10T02:28:42;13.10;99.90
31747;DHT22;18319;48.974;8.462;2023-05-10T02:31:10;13.20;99.90
31747;DHT22;18319;48.974;8.462;2023-05-10T02:33:38;13.20;99.90
31747;DHT22;18319;48.974;8.462;2023-05-10T02:36:07;13.20;99.90
31747;DHT22;18319;48.974;8.462;2023-05-10T02:38:36;13.20;99.90
31747;DHT22;18319;48.974;8.462;2023-05-10T02:41:04;13.20;99.90
31747;DHT22;18319;48.974;8.462;2023-05-10T02:43:32;13.20;99.90
31747;DHT22;18319;48.974;8.462;2023-05-10T02:45:59;13.20;99.90
31747;DHT22;18319;48.974;8.462;2023-05-10T02:48:26;13.20;99.90
31747;DHT22;18319;48.974;8.462;2023-05-10T02:50:55;13.20;99.90
31747;DHT22;18319;48.974;8.462;2023-05-10T02:53:31;13.20;99.90
31747;DHT22;18319;48.974;8.462;2023-05-10T02:56:05;13.20;99.90
31747;DHT22;18319;48.974;8.462;2023-05-10T02:58:33;13.30;99.90
31747;DHT22;18319;48.974;8.462;2023-05-10T03:00:59;13.30;99.90
31747;DHT22;18319;48.974;8.462;2023-05-10T03:03:26;13.30;99.90
31747;DHT22;18319;48.974;8.462;2023-05-10T03:05:53;13.40;99.90
31747;DHT22;18319;48.974;8.462;2023-05-10T03:08:21;13.40;99.90
31747;DHT22;18319;48.974;8.462;2023-05-10T03:10:55;13.30;99.90
31747;DHT22;18319;48.974;8.462;2023-05-10T03:13:30;13.30;99.90
31747;DHT22;18319;48.974;8.462;2023-05-10T03:16:07;13.30;99.90
31747;DHT22;18319;48.974;8.462;2023-05-10T03:18:41;13.30;99.90
31747;DHT22;18319;48.974;8.462;2023-05-10T03:21:11;13.30;99.90
31747;DHT22;18319;48.974;8.462;2023-05-10T03:23:41;13.30;99.90
31747;DHT22;18319;48.974;8.462;2023-05-10T03:26:12;13.30;99.90
31747;DHT22;18319;48.974;8.462;2023-05-10T03:28:43;13.10;99.90
31747;DHT22;18319;48.974;8.462;2023-05-10T03:31:11;13.10;99.90
31747;DHT22;18319;48.974;8.462;2023-05-10T03:33:46;13.00;99.90
31747;DHT22;18319;48.974;8.462;2023-05-10T03:36:13;13.00;99.90
31747;DHT22;18319;48.974;8.462;2023-05-10T03:38:39;13.00;99.90
31747;DHT22;18319;48.974;8.462;2023-05-10T03:41:06;13.00;99.90
31747;DHT22;18319;48.974;8.462;2023-05-10T03:43:33;13.00;99.90
31747;DHT22;18319;48.974;8.462;2023-05-10T03:46:02;12.90;99.90
31747;DHT22;18319;48.974;8.462;2023-05-10T03:48:29;12.90;99.90
31747;DHT22;18319;48.974;8.462;2023-05-10T03:50:56;12.90;99.90
31747;DHT22;18319;48.974;8.462;2023-05-10T03:53:23;12.90;99.90
31747;DHT22;18319;48.974;8.462;2023-05-10T03:55:51;12.90;99.90
31747;DHT22;18319;48.974;8.462;2023-05-10T03:58:18;13.00;99.90
31747;DHT22;18319;48.974;8.462;2023-05-10T04:00:45;13.00;99.90
31747;DHT22;18319;48.974;8.462;2023-05-10T04:03:13;13.00;99.90
31747;DHT22;18319;48.974;8.462;2023-05-10T04:05:40;13.00;99.90
31747;DHT22;18319;48.974;8.462;2023-05-10T04:08:07;13.10;99.90
31747;DHT22;18319;48.974;8.462;2023-05-10T04:10:33;13.10;99.90
31747;DHT22;18319;48.974;8.462;2023-05-10T04:13:00;13.10;99.90
31747;DHT22;18319;48.974;8.462;2023-05-10T04:15:27;13.10;99.90
31747;DHT22;18319;48.974;8.462;2023-05-10T04:17:54;13.00;99.90
31747;DHT22;18319;48.974;8.462;2023-05-10T04:20:22;13.00;99.90
31747;DHT22;18319;48.974;8.462;2023-05-10T04:22:48;13.00;99.90
31747;DHT22;18319;48.974;8.462;2023-05-10T04:25:15;13.00;99.90
31747;DHT22;18319;48.974;8.462;2023-05-10T04:27:42;13.00;99.90
31747;DHT22;18319;48.974;8.462;2023-05-10T04:30:09;13.10;99.90
31747;DHT22;18319;48.974;8.462;2023-05-10T04:32:36;13.10;99.90
31747;DHT22;18319;48.974;8.462;2023-05-10T04:35:03;13.20;99.90
31747;DHT22;18319;48.974;8.462;2023-05-10T04:37:32;13.20;99.90
31747;DHT22;18319;48.974;8.462;2023-05-10T04:39:58;13.30;99.90
31747;DHT22;18319;48.974;8.462;2023-05-10T04:42:26;13.30;99.90
31747;DHT22;18319;48.974;8.462;2023-05-10T04:44:53;13.30;99.90
31747;DHT22;18319;48.974;8.462;2023-05-10T04:47:20;13.30;99.90
31747;DHT22;18319;48.974;8.462;2023-05-10T04:49:46;13.40;99.90
31747;DHT22;18319;48.974;8.462;2023-05-10T04:52:13;13.40;99.90
31747;DHT22;18319;48.974;8.462;2023-05-10T04:54:44;13.40;99.90
31747;DHT22;18319;48.974;8.462;2023-05-10T04:57:10;13.50;99.90
31747;DHT22;18319;48.974;8.462;2023-05-10T04:59:37;13.50;99.90
31747;DHT22;18319;48.974;8.462;2023-05-10T05:02:05;13.50;99.90
31747;DHT22;18319;48.974;8.462;2023-05-10T05:04:32;13.60;99.90
31747;DHT22;18319;48.974;8.462;2023-05-10T05:06:58;13.60;99.90
31747;DHT22;18319;48.974;8.462;2023-05-10T05:09:25;13.60;99.90
31747;DHT22;18319;48.974;8.462;2023-05-10T05:11:53;13.70;99.90
31747;DHT22;18319;48.974;8.462;2023-05-10T05:14:20;13.80;99.90
31747;DHT22;18319;48.974;8.462;2023-05-10T05:16:47;13.80;99.90
31747;DHT22;18319;48.974;8.462;2023-05-10T05:19:13;13.90;99.90
31747;DHT22;18319;48.974;8.462;2023-05-10T05:21:40;13.90;99.90
31747;DHT22;18319;48.974;8.462;2023-05-10T05:24:08;14.00;99.90
31747;DHT22;18319;48.974;8.462;2023-05-10T05:26:35;14.00;99.90
31747;DHT22;18319;48.974;8.462;2023-05-10T05:29:04;14.00;99.90
31747;DHT22;18319;48.974;8.462;2023-05-10T05:31:31;14.10;99.90
31747;DHT22;18319;48.974;8.462;2023-05-10T05:33:58;14.20;99.90
31747;DHT22;18319;48.974;8.462;2023-05-10T05:36:24;14.20;99.90
31747;DHT22;18319;48.974;8.462;2023-05-10T05:38:51;14.30;99.90
31747;DHT22;18319;48.974;8.462;2023-05-10T05:41:18;14.40;99.90
31747;DHT22;18319;48.974;8.462;2023-05-10T05:43:45;14.40;99.90
31747;DHT22;18319;48.974;8.462;2023-05-10T05:46:13;14.40;99.90
31747;DHT22;18319;48.974;8.462;2023-05-10T05:48:40;14.50;99.90
31747;DHT22;18319;48.974;8.462;2023-05-10T05:51:06;14.50;99.90
31747;DHT22;18319;48.974;8.462;2023-05-10T05:53:33;14.50;99.90
31747;DHT22;18319;48.974;8.462;2023-05-10T05:56:00;14.50;99.90
31747;DHT22;18319;48.974;8.462;2023-05-10T05:58:27;14.50;99.90
31747;DHT22;18319;48.974;8.462;2023-05-10T06:00:53;14.50;99.90
31747;DHT22;18319;48.974;8.462;2023-05-10T06:03:22;14.60;99.90
31747;DHT22;18319;48.974;8.462;2023-05-10T06:05:48;14.60;99.90
31747;DHT22;18319;48.974;8.462;2023-05-10T06:08:15;14.70;99.90
31747;DHT22;18319;48.974;8.462;2023-05-10T06:10:42;14.70;99.90
31747;DHT22;18319;48.974;8.462;2023-05-10T06:13:09;14.80;99.90
31747;DHT22;18319;48.974;8.462;2023-05-10T06:15:36;14.90;99.90
31747;DHT22;18319;48.974;8.462;2023-05-10T06:18:03;14.90;99.90
31747;DHT22;18319;48.974;8.462;2023-05-10T06:20:32;14.90;99.90
31747;DHT22;18319;48.974;8.462;2023-05-10T06:22:59;14.90;99.90
31747;DHT22;18319;48.974;8.462;2023-05-10T06:25:26;15.00;99.90
31747;DHT22;18319;48.974;8.462;2023-05-10T06:27:52;15.10;99.90
31747;DHT22;18319;48.974;8.462;2023-05-10T06:30:23;15.20;99.90
31747;DHT22;18319;48.974;8.462;2023-05-10T06:32:52;15.10;99.90
31747;DHT22;18319;48.974;8.462;2023-05-10T06:35:20;15.10;99.90
31747;DHT22;18319;48.974;8.462;2023-05-10T06:37:48;15.20;99.90
31747;DHT22;18319;48.974;8.462;2023-05-10T06:40:15;15.20;99.90
31747;DHT22;18319;48.974;8.462;2023-05-10T06:42:42;15.30;99.90
31747;DHT22;18319;48.974;8.462;2023-05-10T06:45:10;15.40;99.90
31747;DHT22;18319;48.974;8.462;2023-05-10T06:47:37;15.40;99.90
31747;DHT22;18319;48.974;8.462;2023-05-10T06:50:05;15.40;99.90
31747;DHT22;18319;48.974;8.462;2023-05-10T06:52:31;15.40;99.90
31747;DHT22;18319;48.974;8.462;2023-05-10T06:55:00;15.30;99.90
31747;DHT22;18319;48.974;8.462;2023-05-10T06:57:27;15.30;99.90
31747;DHT22;18319;48.974;8.462;2023-05-10T06:59:54;15.40;99.90
31747;DHT22;18319;48.974;8.462;2023-05-10T07:02:21;15.50;99.90
31747;DHT22;18319;48.974;8.462;2023-05-10T07:04:48;15.60;99.90
31747;DHT22;18319;48.974;8.462;2023-05-10T07:07:15;15.80;99.90
31747;DHT22;18319;48.974;8.462;2023-05-10T07:09:42;15.90;99.90
31747;DHT22;18319;48.974;8.462;2023-05-10T07:12:10;15.90;99.90
31747;DHT22;18319;48.974;8.462;2023-05-10T07:14:37;16.00;99.90
31747;DHT22;18319;48.974;8.462;2023-05-10T07:17:03;16.00;99.90
31747;DHT22;18319;48.974;8.462;2023-05-10T07:19:30;16.10;99.90
31747;DHT22;18319;48.974;8.462;2023-05-10T07:21:58;16.00;99.90
31747;DHT22;18319;48.974;8.462;2023-05-10T07:24:25;15.90;99.90
31747;DHT22;18319;48.974;8.462;2023-05-10T07:26:51;15.90;99.90
31747;DHT22;18319;48.974;8.462;2023-05-10T07:29:19;15.80;99.90
31747;DHT22;18319;48.974;8.462;2023-05-10T07:31:46;15.80;99.90
31747;DHT22;18319;48.974;8.462;2023-05-10T07:34:13;15.70;99.90
31747;DHT22;18319;48.974;8.462;2023-05-10T07:36:40;15.70;99.90
31747;DHT22;18319;48.974;8.462;2023-05-10T07:39:07;15.60;99.90
31747;DHT22;18319;48.974;8.462;2023-05-10T07:41:33;15.50;99.90
31747;DHT22;18319;48.974;8.462;2023-05-10T07:44:00;15.30;99.90
31747;DHT22;18319;48.974;8.462;2023-05-10T07:46:28;15.30;99.90
31747;DHT22;18319;48.974;8.462;2023-05-10T07:48:55;15.30;99.90
31747;DHT22;18319;48.974;8.462;2023-05-10T07:51:22;15.50;99.90
31747;DHT22;18319;48.974;8.462;2023-05-10T07:53:49;15.70;99.90
31747;DHT22;18319;48.974;8.462;2023-05-10T07:56:23;15.90;99.90
31747;DHT22;18319;48.974;8.462;2023-05-10T07:58:52;16.20;99.90
31747;DHT22;18319;48.974;8.462;2023-05-10T08:01:19;16.30;99.90
31747;DHT22;18319;48.974;8.462;2023-05-10T08:03:47;16.40;99.90
31747;DHT22;18319;48.974;8.462;2023-05-10T08:06:17;16.60;99.90
31747;DHT22;18319;48.974;8.462;2023-05-10T08:08:45;16.90;99.90
31747;DHT22;18319;48.974;8.462;2023-05-10T08:11:14;17.20;99.90
31747;DHT22;18319;48.974;8.462;2023-05-10T08:13:41;17.40;99.90
31747;DHT22;18319;48.974;8.462;2023-05-10T08:16:08;17.20;99.90
31747;DHT22;18319;48.974;8.462;2023-05-10T08:18:35;17.10;99.90
31747;DHT22;18319;48.974;8.462;2023-05-10T08:21:03;17.30;99.90
31747;DHT22;18319;48.974;8.462;2023-05-10T08:23:30;17.50;99.90
31747;DHT22;18319;48.974;8.462;2023-05-10T08:25:56;17.70;99.90
31747;DHT22;18319;48.974;8.462;2023-05-10T08:28:23;17.80;99.90
31747;DHT22;18319;48.974;8.462;2023-05-10T08:30:50;18.00;99.90
31747;DHT22;18319;48.974;8.462;2023-05-10T08:33:18;18.30;99.90
31747;DHT22;18319;48.974;8.462;2023-05-10T08:35:45;18.50;99.90
31747;DHT22;18319;48.974;8.462;2023-05-10T08:38:13;18.70;99.90
31747;DHT22;18319;48.974;8.462;2023-05-10T08:40:42;18.90;99.90
31747;DHT22;18319;48.974;8.462;2023-05-10T08:43:10;19.10;99.90
31747;DHT22;18319;48.974;8.462;2023-05-10T08:45:38;19.20;99.90
31747;DHT22;18319;48.974;8.462;2023-05-10T08:48:06;19.40;99.90
31747;DHT22;18319;48.974;8.462;2023-05-10T08:50:35;19.70;99.90
31747;DHT22;18319;48.974;8.462;2023-05-10T08:53:05;19.80;99.90
31747;DHT22;18319;48.974;8.462;2023-05-10T08:55:34;20.10;99.90
31747;DHT22;18319;48.974;8.462;2023-05-10T08:58:02;20.30;99.90
31747;DHT22;18319;48.974;8.462;2023-05-10T09:00:29;20.50;99.90
31747;DHT22;18319;48.974;8.462;2023-05-10T09:02:56;20.80;99.90
31747;DHT22;18319;48.974;8.462;2023-05-10T09:05:24;20.90;99.90
31747;DHT22;18319;48.974;8.462;2023-05-10T09:07:50;20.90;99.90
31747;DHT22;18319;48.974;8.462;2023-05-10T09:10:19;21.10;99.90
31747;DHT22;18319;48.974;8.462;2023-05-10T09:12:48;20.80;99.90
31747;DHT22;18319;48.974;8.462;2023-05-10T09:15:15;20.70;99.90
31747;DHT22;18319;48.974;8.462;2023-05-10T09:17:45;20.40;99.90
31747;DHT22;18319;48.974;8.462;2023-05-10T09:20:12;20.00;99.90
31747;DHT22;18319;48.974;8.462;2023-05-10T09:22:39;19.90;99.90
31747;DHT22;18319;48.974;8.462;2023-05-10T09:25:07;19.60;99.90
31747;DHT22;18319;48.974;8.462;2023-05-10T09:27:35;19.60;99.90
31747;DHT22;18319;48.974;8.462;2023-05-10T09:30:04;19.40;99.90
31747;DHT22;18319;48.974;8.462;2023-05-10T09:32:39;19.20;99.90
31747;DHT22;18319;48.974;8.462;2023-05-10T09:35:07;18.50;99.90
31747;DHT22;18319;48.974;8.462;2023-05-10T09:37:34;17.90;99.90
31747;DHT22;18319;48.974;8.462;2023-05-10T09:40:04;17.40;99.90
31747;DHT22;18319;48.974;8.462;2023-05-10T09:42:31;17.00;99.90
31747;DHT22;18319;48.974;8.462;2023-05-10T09:45:02;16.70;99.90
31747;DHT22;18319;48.974;8.462;2023-05-10T09:47:31;16.30;99.90
31747;DHT22;18319;48.974;8.462;2023-05-10T09:49:58;16.10;99.90
31747;DHT22;18319;48.974;8.462;2023-05-10T09:52:28;15.90;99.90
31747;DHT22;18319;48.974;8.462;2023-05-10T09:54:55;15.80;99.90
31747;DHT22;18319;48.974;8.462;2023-05-10T09:57:23;15.90;99.90
31747;DHT22;18319;48.974;8.462;2023-05-10T09:59:50;16.30;99.90
31747;DHT22;18319;48.974;8.462;2023-05-10T10:02:21;16.70;99.90
31747;DHT22;18319;48.974;8.462;2023-05-10T10:04:54;17.10;99.90
31747;DHT22;18319;48.974;8.462;2023-05-10T10:07:23;17.40;99.90
31747;DHT22;18319;48.974;8.462;2023-05-10T10:09:51;18.00;99.90
31747;DHT22;18319;48.974;8.462;2023-05-10T10:12:18;18.40;99.90
31747;DHT22;18319;48.974;8.462;2023-05-10T10:14:46;18.80;99.90
31747;DHT22;18319;48.974;8.462;2023-05-10T10:17:15;18.90;99.90
31747;DHT22;18319;48.974;8.462;2023-05-10T10:19:43;18.60;99.90
31747;DHT22;18319;48.974;8.462;2023-05-10T10:22:11;18.30;99.90
31747;DHT22;18319;48.974;8.462;2023-05-10T10:24:38;17.90;99.90
31747;DHT22;18319;48.974;8.462;2023-05-10T10:27:15;17.70;99.90
31747;DHT22;18319;48.974;8.462;2023-05-10T10:29:52;17.50;99.90
31747;DHT22;18319;48.974;8.462;2023-05-10T10:32:30;17.20;99.90
31747;DHT22;18319;48.974;8.462;2023-05-10T10:35:01;16.90;99.90
31747;DHT22;18319;48.974;8.462;2023-05-10T10:37:43;17.10;99.90
31747;DHT22;18319;48.974;8.462;2023-05-10T10:40:26;17.40;99.90
31747;DHT22;18319;48.974;8.462;2023-05-10T10:42:54;18.00;99.90
31747;DHT22;18319;48.974;8.462;2023-05-10T10:45:22;18.50;99.90
31747;DHT22;18319;48.974;8.462;2023-05-10T10:47:49;18.90;99.90
31747;DHT22;18319;48.974;8.462;2023-05-10T10:50:21;19.10;99.90
31747;DHT22;18319;48.974;8.462;2023-05-10T10:52:48;19.30;99.90
31747;DHT22;18319;48.974;8.462;2023-05-10T10:55:18;19.60;99.90
31747;DHT22;18319;48.974;8.462;2023-05-10T10:57:49;19.90;99.90
31747;DHT22;18319;48.974;8.462;2023-05-10T11:00:25;20.00;99.90
31747;DHT22;18319;48.974;8.462;2023-05-10T11:02:53;19.90;99.90
31747;DHT22;18319;48.974;8.462;2023-05-10T11:05:36;19.90;99.90
31747;DHT22;18319;48.974;8.462;2023-05-10T11:08:14;19.70;99.90
31747;DHT22;18319;48.974;8.462;2023-05-10T11:10:54;19.80;99.90
31747;DHT22;18319;48.974;8.462;2023-05-10T11:13:29;19.80;99.90
31747;DHT22;18319;48.974;8.462;2023-05-10T11:15:56;19.80;99.90
31747;DHT22;18319;48.974;8.462;2023-05-10T11:18:26;19.80;99.90
31747;DHT22;18319;48.974;8.462;2023-05-10T11:20:58;19.60;99.90
31747;DHT22;18319;48.974;8.462;2023-05-10T11:23:30;19.50;99.90
31747;DHT22;18319;48.974;8.462;2023-05-10T11:25:57;19.50;99.90
31747;DHT22;18319;48.974;8.462;2023-05-10T11:28:24;19.40;99.90
31747;DHT22;18319;48.974;8.462;2023-05-10T11:30:52;19.60;99.90
31747;DHT22;18319;48.974;8.462;2023-05-10T11:33:19;19.60;99.90
31747;DHT22;18319;48.974;8.462;2023-05-10T11:35:46;19.70;99.90
31747;DHT22;18319;48.974;8.462;2023-05-10T11:38:14;19.60;99.90
31747;DHT22;18319;48.974;8.462;2023-05-10T11:40:41;19.30;99.90
31747;DHT22;18319;48.974;8.462;2023-05-10T11:43:09;19.20;99.90
31747;DHT22;18319;48.974;8.462;2023-05-10T11:45:37;19.20;99.90
31747;DHT22;18319;48.974;8.462;2023-05-10T11:48:05;19.10;99.90
31747;DHT22;18319;48.974;8.462;2023-05-10T11:50:32;18.90;99.90
31747;DHT22;18319;48.974;8.462;2023-05-10T11:52:59;19.00;99.90
31747;DHT22;18319;48.974;8.462;2023-05-10T11:55:27;19.00;99.90
31747;DHT22;18319;48.974;8.462;2023-05-10T11:57:59;18.70;99.90
31747;DHT22;18319;48.974;8.462;2023-05-10T12:00:26;18.40;99.90
31747;DHT22;18319;48.974;8.462;2023-05-10T12:02:53;18.30;99.90
31747;DHT22;18319;48.974;8.462;2023-05-10T12:05:20;18.20;99.90
31747;DHT22;18319;48.974;8.462;2023-05-10T12:07:47;18.20;99.90
31747;DHT22;18319;48.974;8.462;2023-05-10T12:10:14;18.50;99.90
31747;DHT22;18319;48.974;8.462;2023-05-10T12:12:44;18.90;99.90
31747;DHT22;18319;48.974;8.462;2023-05-10T12:15:12;19.00;99.90
31747;DHT22;18319;48.974;8.462;2023-05-10T12:17:44;19.20;99.90
31747;DHT22;18319;48.974;8.462;2023-05-10T12:20:15;19.20;99.90
31747;DHT22;18319;48.974;8.462;2023-05-10T12:22:44;19.40;99.90
31747;DHT22;18319;48.974;8.462;2023-05-10T12:25:11;19.50;99.90
31747;DHT22;18319;48.974;8.462;2023-05-10T12:27:38;19.50;99.90
31747;DHT22;18319;48.974;8.462;2023-05-10T12:30:07;19.70;99.90
31747;DHT22;18319;48.974;8.462;2023-05-10T12:32:38;19.80;99.90
31747;DHT22;18319;48.974;8.462;2023-05-10T12:35:06;19.80;99.90
31747;DHT22;18319;48.974;8.462;2023-05-10T12:37:33;19.80;99.90
31747;DHT22;18319;48.974;8.462;2023-05-10T12:40:06;19.90;99.90
31747;DHT22;18319;48.974;8.462;2023-05-10T12:42:33;19.90;99.90
31747;DHT22;18319;48.974;8.462;2023-05-10T12:45:01;19.70;99.90
31747;DHT22;18319;48.974;8.462;2023-05-10T12:47:29;19.70;99.90
31747;DHT22;18319;48.974;8.462;2023-05-10T12:49:56;19.80;99.90
31747;DHT22;18319;48.974;8.462;2023-05-10T12:52:23;19.70;99.90
31747;DHT22;18319;48.974;8.462;2023-05-10T12:54:50;19.80;99.90
31747;DHT22;18319;48.974;8.462;2023-05-10T12:57:16;19.90;99.90
31747;DHT22;18319;48.974;8.462;2023-05-10T12:59:43;20.00;99.90
31747;DHT22;18319;48.974;8.462;2023-05-10T13:02:10;20.00;99.90
31747;DHT22;18319;48.974;8.462;2023-05-10T13:04:38;20.10;99.90
31747;DHT22;18319;48.974;8.462;2023-05-10T13:07:05;20.00;99.90
31747;DHT22;18319;48.974;8.462;2023-05-10T13:09:32;20.00;99.90
31747;DHT22;18319;48.974;8.462;2023-05-10T13:11:59;20.00;99.90
31747;DHT22;18319;48.974;8.462;2023-05-10T13:14:26;19.90;99.90
31747;DHT22;18319;48.974;8.462;2023-05-10T13:16:53;19.90;99.90
31747;DHT22;18319;48.974;8.462;2023-05-10T13:19:20;19.90;99.90
31747;DHT22;18319;48.974;8.462;2023-05-10T13:21:48;19.90;99.90
31747;DHT22;18319;48.974;8.462;2023-05-10T13:24:15;19.90;99.90
31747;DHT22;18319;48.974;8.462;2023-05-10T13:26:42;19.90;99.90
31747;DHT22;18319;48.974;8.462;2023-05-10T13:29:09;19.90;99.90
31747;DHT22;18319;48.974;8.462;2023-05-10T13:31:36;19.80;99.90
31747;DHT22;18319;48.974;8.462;2023-05-10T13:34:04;19.70;99.90
31747;DHT22;18319;48.974;8.462;2023-05-10T13:36:31;19.70;99.90
31747;DHT22;18319;48.974;8.462;2023-05-10T13:38:59;19.70;99.90
31747;DHT22;18319;48.974;8.462;2023-05-10T13:41:28;19.70;99.90
31747;DHT22;18319;48.974;8.462;2023-05-10T13:43:55;19.70;99.90
31747;DHT22;18319;48.974;8.462;2023-05-10T13:46:22;19.80;99.90
31747;DHT22;18319;48.974;8.462;2023-05-10T13:48:49;19.80;99.90
31747;DHT22;18319;48.974;8.462;2023-05-10T13:51:15;19.60;99.90
31747;DHT22;18319;48.974;8.462;2023-05-10T13:53:42;19.60;99.70
31747;DHT22;18319;48.974;8.462;2023-05-10T13:56:10;19.60;99.90
31747;DHT22;18319;48.974;8.462;2023-05-10T13:58:37;19.60;99.90
31747;DHT22;18319;48.974;8.462;2023-05-10T14:01:04;19.60;99.90
31747;DHT22;18319;48.974;8.462;2023-05-10T14:03:31;19.70;99.90
31747;DHT22;18319;48.974;8.462;2023-05-10T14:05:58;19.70;99.90
31747;DHT22;18319;48.974;8.462;2023-05-10T14:08:24;19.70;99.90
31747;DHT22;18319;48.974;8.462;2023-05-10T14:10:53;19.50;99.90
31747;DHT22;18319;48.974;8.462;2023-05-10T14:13:23;19.30;99.90
31747;DHT22;18319;48.974;8.462;2023-05-10T14:15:50;19.00;99.90
31747;DHT22;18319;48.974;8.462;2023-05-10T14:18:17;18.70;99.90
31747;DHT22;18319;48.974;8.462;2023-05-10T14:20:44;18.40;99.90
31747;DHT22;18319;48.974;8.462;2023-05-10T14:23:10;18.10;99.90
31747;DHT22;18319;48.974;8.462;2023-05-10T14:25:38;17.90;99.90
31747;DHT22;18319;48.974;8.462;2023-05-10T14:28:04;17.70;99.90
31747;DHT22;18319;48.974;8.462;2023-05-10T14:30:33;17.70;99.90
31747;DHT22;18319;48.974;8.462;2023-05-10T14:32:59;17.50;99.90
31747;DHT22;18319;48.974;8.462;2023-05-10T14:35:26;17.50;99.90
31747;DHT22;18319;48.974;8.462;2023-05-10T14:37:53;17.50;99.90
31747;DHT22;18319;48.974;8.462;2023-05-10T14:40:20;17.50;99.90
31747;DHT22;18319;48.974;8.462;2023-05-10T14:42:47;17.80;99.90
31747;DHT22;18319;48.974;8.462;2023-05-10T14:45:14;18.10;99.90
31747;DHT22;18319;48.974;8.462;2023-05-10T14:47:42;18.40;99.90
31747;DHT22;18319;48.974;8.462;2023-05-10T14:50:09;18.70;99.90
31747;DHT22;18319;48.974;8.462;2023-05-10T14:52:36;19.00;99.90
31747;DHT22;18319;48.974;8.462;2023-05-10T14:55:04;19.10;99.90
31747;DHT22;18319;48.974;8.462;2023-05-10T14:57:30;19.20;99.90
31747;DHT22;18319;48.974;8.462;2023-05-10T14:59:58;19.40;99.90
31747;DHT22;18319;48.974;8.462;2023-05-10T15:02:24;19.40;99.40
31747;DHT22;18319;48.974;8.462;2023-05-10T15:04:52;19.50;99.90
31747;DHT22;18319;48.974;8.462;2023-05-10T15:07:19;19.50;99.90
31747;DHT22;18319;48.974;8.462;2023-05-10T15:09:46;19.40;98.80
31747;DHT22;18319;48.974;8.462;2023-05-10T15:12:13;19.20;96.90
31747;DHT22;18319;48.974;8.462;2023-05-10T15:14:39;19.10;99.90
31747;DHT22;18319;48.974;8.462;2023-05-10T15:17:06;19.00;98.60
31747;DHT22;18319;48.974;8.462;2023-05-10T15:19:33;18.90;98.00
31747;DHT22;18319;48.974;8.462;2023-05-10T15:22:03;18.70;97.70
31747;DHT22;18319;48.974;8.462;2023-05-10T15:24:30;18.60;99.10
31747;DHT22;18319;48.974;8.462;2023-05-10T15:26:57;18.60;99.90
31747;DHT22;18319;48.974;8.462;2023-05-10T15:29:24;18.50;98.60
31747;DHT22;18319;48.974;8.462;2023-05-10T15:31:51;18.50;98.70
31747;DHT22;18319;48.974;8.462;2023-05-10T15:34:18;18.30;97.90
31747;DHT22;18319;48.974;8.462;2023-05-10T15:36:45;18.20;99.90
31747;DHT22;18319;48.974;8.462;2023-05-10T15:39:13;18.00;99.60